sensor_id;sensor_type;location;lat;lon;timestamp;P1;durP1;ratioP1;P2;durP2;ratioP2
16101;SDS011;56411;52.964;10.540;2022-09-12T00:01:08;12.50;;;6.30;;
16101;SDS011;56411;52.964;10.540;2022-09-12T00:03:37;10.30;;;5.83;;
16101;SDS011;56411;52.964;10.540;2022-09-12T00:06:08;10.27;;;5.77;;
16101;SDS011;56411;52.964;10.540;2022-09-12T00:08:37;11.00;;;5.83;;
16101;SDS011;56411;52.964;10.540;2022-09-12T00:11:05;9.23;;;5.70;;
16101;SDS011;56411;52.964;10.540;2022-09-12T00:13:34;11.30;;;5.70;;
16101;SDS011;56411;52.964;10.540;2022-09-12T00:16:01;10.97;;;5.50;;
16101;SDS011;56411;52.964;10.540;2022-09-12T00:18:29;11.30;;;5.60;;
16101;SDS011;56411;52.964;10.540;2022-09-12T00:20:56;10.13;;;6.13;;
16101;SDS011;56411;52.964;10.540;2022-09-12T00:23:26;9.63;;;5.43;;
16101;SDS011;56411;52.964;10.540;2022-09-12T00:25:53;12.73;;;5.37;;
16101;SDS011;56411;52.964;10.540;2022-09-12T00:28:20;8.87;;;5.30;;
16101;SDS011;56411;52.964;10.540;2022-09-12T00:30:48;9.00;;;5.70;;
16101;SDS011;56411;52.964;10.540;2022-09-12T00:33:16;9.97;;;6.03;;
16101;SDS011;56411;52.964;10.540;2022-09-12T00:35:43;11.20;;;6.50;;
16101;SDS011;56411;52.964;10.540;2022-09-12T00:38:11;9.80;;;5.90;;
16101;SDS011;56411;52.964;10.540;2022-09-12T00:40:39;11.07;;;5.30;;
16101;SDS011;56411;52.964;10.540;2022-09-12T00:43:09;11.90;;;5.77;;
16101;SDS011;56411;52.964;10.540;2022-09-12T00:45:38;9.10;;;5.13;;
16101;SDS011;56411;52.964;10.540;2022-09-12T00:48:12;10.43;;;5.53;;
16101;SDS011;56411;52.964;10.540;2022-09-12T00:50:46;10.37;;;5.37;;
16101;SDS011;56411;52.964;10.540;2022-09-12T00:53:14;9.63;;;5.10;;
16101;SDS011;56411;52.964;10.540;2022-09-12T00:55:42;10.43;;;5.73;;
16101;SDS011;56411;52.964;10.540;2022-09-12T00:58:13;10.03;;;5.43;;
16101;SDS011;56411;52.964;10.540;2022-09-12T01:00:45;12.50;;;6.47;;
16101;SDS011;56411;52.964;10.540;2022-09-12T01:03:14;11.37;;;6.50;;
16101;SDS011;56411;52.964;10.540;2022-09-12T01:05:46;12.10;;;6.90;;
16101;SDS011;56411;52.964;10.540;2022-09-12T01:08:21;10.97;;;6.13;;
16101;SDS011;56411;52.964;10.540;2022-09-12T01:10:49;10.20;;;6.27;;
16101;SDS011;56411;52.964;10.540;2022-09-12T01:13:17;11.53;;;6.17;;
16101;SDS011;56411;52.964;10.540;2022-09-12T01:15:44;15.07;;;6.60;;
16101;SDS011;56411;52.964;10.540;2022-09-12T01:18:15;11.67;;;6.10;;
16101;SDS011;56411;52.964;10.540;2022-09-12T01:20:53;12.07;;;6.40;;
16101;SDS011;56411;52.964;10.540;2022-09-12T01:29:42;12.47;;;7.13;;
16101;SDS011;56411;52.964;10.540;2022-09-12T01:32:33;12.10;;;6.80;;
16101;SDS011;56411;52.964;10.540;2022-09-12T01:35:14;12.37;;;7.30;;
16101;SDS011;56411;52.964;10.540;2022-09-12T01:37:49;13.03;;;7.07;;
16101;SDS011;56411;52.964;10.540;2022-09-12T01:40:26;15.00;;;7.83;;
16101;SDS011;56411;52.964;10.540;2022-09-12T01:43:02;13.00;;;6.30;;
16101;SDS011;56411;52.964;10.540;2022-09-12T01:45:36;10.50;;;5.90;;
16101;SDS011;56411;52.964;10.540;2022-09-12T01:48:09;11.93;;;6.43;;
16101;SDS011;56411;52.964;10.540;2022-09-12T01:50:49;11.00;;;6.27;;
16101;SDS011;56411;52.964;10.540;2022-09-12T01:53:19;11.27;;;6.30;;
16101;SDS011;56411;52.964;10.540;2022-09-12T01:55:51;14.27;;;6.43;;
16101;SDS011;56411;52.964;10.540;2022-09-12T01:58:22;11.70;;;5.87;;
16101;SDS011;56411;52.964;10.540;2022-09-12T02:00:54;14.33;;;6.50;;
16101;SDS011;56411;52.964;10.540;2022-09-12T02:03:29;11.43;;;7.00;;
16101;SDS011;56411;52.964;10.540;2022-09-12T02:06:00;11.63;;;6.57;;
16101;SDS011;56411;52.964;10.540;2022-09-12T02:08:33;12.57;;;7.00;;
16101;SDS011;56411;52.964;10.540;2022-09-12T02:11:06;12.90;;;7.27;;
16101;SDS011;56411;52.964;10.540;2022-09-12T02:13:35;12.93;;;7.20;;
16101;SDS011;56411;52.964;10.540;2022-09-12T02:16:07;11.97;;;6.97;;
16101;SDS011;56411;52.964;10.540;2022-09-12T02:18:37;13.13;;;7.13;;
16101;SDS011;56411;52.964;10.540;2022-09-12T02:21:09;12.63;;;7.13;;
16101;SDS011;56411;52.964;10.540;2022-09-12T02:23:37;13.37;;;7.37;;
16101;SDS011;56411;52.964;10.540;2022-09-12T02:26:09;10.83;;;6.40;;
16101;SDS011;56411;52.964;10.540;2022-09-12T02:28:41;12.00;;;6.97;;
16101;SDS011;56411;52.964;10.540;2022-09-12T02:31:11;12.20;;;7.30;;
16101;SDS011;56411;52.964;10.540;2022-09-12T02:33:45;10.97;;;6.30;;
16101;SDS011;56411;52.964;10.540;2022-09-12T02:36:22;12.77;;;7.10;;
16101;SDS011;56411;52.964;10.540;2022-09-12T02:38:55;11.70;;;6.90;;
16101;SDS011;56411;52.964;10.540;2022-09-12T02:41:22;10.67;;;6.70;;
16101;SDS011;56411;52.964;10.540;2022-09-12T02:43:49;13.47;;;6.53;;
16101;SDS011;56411;52.964;10.540;2022-09-12T02:46:18;10.40;;;5.97;;
16101;SDS011;56411;52.964;10.540;2022-09-12T02:48:49;10.83;;;6.43;;
16101;SDS011;56411;52.964;10.540;2022-09-12T02:51:17;10.50;;;6.10;;
16101;SDS011;56411;52.964;10.540;2022-09-12T02:53:44;10.07;;;6.07;;
16101;SDS011;56411;52.964;10.540;2022-09-12T02:56:12;10.23;;;6.20;;
16101;SDS011;56411;52.964;10.540;2022-09-12T02:58:43;11.87;;;6.60;;
16101;SDS011;56411;52.964;10.540;2022-09-12T03:01:11;11.13;;;6.13;;
16101;SDS011;56411;52.964;10.540;2022-09-12T03:03:53;12.17;;;6.50;;
16101;SDS011;56411;52.964;10.540;2022-09-12T03:06:32;11.47;;;6.13;;
16101;SDS011;56411;52.964;10.540;2022-09-12T03:09:07;12.37;;;6.43;;
16101;SDS011;56411;52.964;10.540;2022-09-12T03:17:48;10.17;;;6.17;;
16101;SDS011;56411;52.964;10.540;2022-09-12T03:20:32;13.30;;;6.30;;
16101;SDS011;56411;52.964;10.540;2022-09-12T03:23:10;9.80;;;5.50;;
16101;SDS011;56411;52.964;10.540;2022-09-12T03:25:45;9.37;;;5.67;;
16101;SDS011;56411;52.964;10.540;2022-09-12T03:28:18;11.83;;;6.60;;
16101;SDS011;56411;52.964;10.540;2022-09-12T03:30:49;11.27;;;5.90;;
16101;SDS011;56411;52.964;10.540;2022-09-12T03:33:18;11.93;;;5.03;;
16101;SDS011;56411;52.964;10.540;2022-09-12T03:35:48;9.97;;;5.00;;
16101;SDS011;56411;52.964;10.540;2022-09-12T03:38:15;10.40;;;5.20;;
16101;SDS011;56411;52.964;10.540;2022-09-12T03:40:43;11.23;;;6.07;;
16101;SDS011;56411;52.964;10.540;2022-09-12T03:43:10;10.70;;;5.33;;
16101;SDS011;56411;52.964;10.540;2022-09-12T03:45:37;10.20;;;5.87;;
16101;SDS011;56411;52.964;10.540;2022-09-12T03:48:04;10.00;;;5.90;;
16101;SDS011;56411;52.964;10.540;2022-09-12T03:50:31;11.60;;;5.47;;
16101;SDS011;56411;52.964;10.540;2022-09-12T03:53:00;9.20;;;5.30;;
16101;SDS011;56411;52.964;10.540;2022-09-12T03:55:27;11.97;;;5.63;;
16101;SDS011;56411;52.964;10.540;2022-09-12T03:57:55;12.93;;;5.90;;
16101;SDS011;56411;52.964;10.540;2022-09-12T04:00:22;8.80;;;5.37;;
16101;SDS011;56411;52.964;10.540;2022-09-12T04:02:52;11.60;;;6.13;;
16101;SDS011;56411;52.964;10.540;2022-09-12T04:05:19;10.70;;;5.70;;
16101;SDS011;56411;52.964;10.540;2022-09-12T04:07:46;11.80;;;6.67;;
16101;SDS011;56411;52.964;10.540;2022-09-12T04:10:15;10.73;;;6.73;;
16101;SDS011;56411;52.964;10.540;2022-09-12T04:12:42;12.57;;;7.37;;
16101;SDS011;56411;52.964;10.540;2022-09-12T04:15:09;12.10;;;8.00;;
16101;SDS011;56411;52.964;10.540;2022-09-12T04:17:36;13.70;;;9.10;;
16101;SDS011;56411;52.964;10.540;2022-09-12T04:20:03;13.07;;;8.80;;
16101;SDS011;56411;52.964;10.540;2022-09-12T04:22:30;13.03;;;8.60;;
16101;SDS011;56411;52.964;10.540;2022-09-12T04:24:57;13.77;;;8.17;;
16101;SDS011;56411;52.964;10.540;2022-09-12T04:27:26;11.43;;;7.37;;
16101;SDS011;56411;52.964;10.540;2022-09-12T04:29:53;10.50;;;6.43;;
16101;SDS011;56411;52.964;10.540;2022-09-12T04:32:20;10.43;;;5.97;;
16101;SDS011;56411;52.964;10.540;2022-09-12T04:34:47;10.63;;;5.90;;
16101;SDS011;56411;52.964;10.540;2022-09-12T04:37:16;11.10;;;6.07;;
16101;SDS011;56411;52.964;10.540;2022-09-12T04:39:43;10.57;;;6.50;;
16101;SDS011;56411;52.964;10.540;2022-09-12T04:42:10;12.13;;;6.27;;
16101;SDS011;56411;52.964;10.540;2022-09-12T04:44:39;11.90;;;6.07;;
16101;SDS011;56411;52.964;10.540;2022-09-12T04:47:05;11.97;;;6.00;;
16101;SDS011;56411;52.964;10.540;2022-09-12T04:49:33;11.43;;;6.40;;
16101;SDS011;56411;52.964;10.540;2022-09-12T04:52:00;11.63;;;6.33;;
16101;SDS011;56411;52.964;10.540;2022-09-12T04:54:27;11.00;;;6.40;;
16101;SDS011;56411;52.964;10.540;2022-09-12T04:56:54;11.63;;;6.60;;
16101;SDS011;56411;52.964;10.540;2022-09-12T04:59:21;13.00;;;8.47;;
16101;SDS011;56411;52.964;10.540;2022-09-12T05:01:49;12.87;;;8.27;;
16101;SDS011;56411;52.964;10.540;2022-09-12T05:04:16;10.57;;;6.27;;
16101;SDS011;56411;52.964;10.540;2022-09-12T05:06:43;10.77;;;6.30;;
16101;SDS011;56411;52.964;10.540;2022-09-12T05:09:11;12.00;;;6.67;;
16101;SDS011;56411;52.964;10.540;2022-09-12T05:11:40;12.17;;;7.80;;
16101;SDS011;56411;52.964;10.540;2022-09-12T05:14:08;10.77;;;6.90;;
16101;SDS011;56411;52.964;10.540;2022-09-12T05:16:35;12.73;;;7.10;;
16101;SDS011;56411;52.964;10.540;2022-09-12T05:19:04;14.63;;;8.50;;
16101;SDS011;56411;52.964;10.540;2022-09-12T05:21:31;17.13;;;9.60;;
16101;SDS011;56411;52.964;10.540;2022-09-12T05:23:57;18.97;;;10.80;;
16101;SDS011;56411;52.964;10.540;2022-09-12T05:26:25;19.00;;;11.90;;
16101;SDS011;56411;52.964;10.540;2022-09-12T05:28:52;18.93;;;10.93;;
16101;SDS011;56411;52.964;10.540;2022-09-12T05:31:20;14.87;;;7.43;;
16101;SDS011;56411;52.964;10.540;2022-09-12T05:33:49;10.63;;;6.47;;
16101;SDS011;56411;52.964;10.540;2022-09-12T05:36:19;11.63;;;6.77;;
16101;SDS011;56411;52.964;10.540;2022-09-12T05:38:48;11.90;;;6.40;;
16101;SDS011;56411;52.964;10.540;2022-09-12T05:41:15;12.97;;;7.07;;
16101;SDS011;56411;52.964;10.540;2022-09-12T05:43:44;12.50;;;6.70;;
16101;SDS011;56411;52.964;10.540;2022-09-12T05:46:12;11.97;;;6.80;;
16101;SDS011;56411;52.964;10.540;2022-09-12T05:48:41;12.50;;;7.07;;
16101;SDS011;56411;52.964;10.540;2022-09-12T05:51:10;12.90;;;7.50;;
16101;SDS011;56411;52.964;10.540;2022-09-12T05:53:39;11.77;;;6.97;;
16101;SDS011;56411;52.964;10.540;2022-09-12T05:56:07;12.80;;;6.97;;
16101;SDS011;56411;52.964;10.540;2022-09-12T05:58:35;12.70;;;6.73;;
16101;SDS011;56411;52.964;10.540;2022-09-12T06:01:05;12.20;;;6.97;;
16101;SDS011;56411;52.964;10.540;2022-09-12T06:03:33;11.57;;;7.23;;
16101;SDS011;56411;52.964;10.540;2022-09-12T06:06:01;11.47;;;7.50;;
16101;SDS011;56411;52.964;10.540;2022-09-12T06:08:29;13.83;;;7.97;;
16101;SDS011;56411;52.964;10.540;2022-09-12T06:11:01;13.83;;;7.57;;
16101;SDS011;56411;52.964;10.540;2022-09-12T06:13:30;13.10;;;7.93;;
16101;SDS011;56411;52.964;10.540;2022-09-12T06:16:01;12.73;;;8.00;;
16101;SDS011;56411;52.964;10.540;2022-09-12T06:18:29;12.60;;;8.27;;
16101;SDS011;56411;52.964;10.540;2022-09-12T06:20:56;14.03;;;8.73;;
16101;SDS011;56411;52.964;10.540;2022-09-12T06:23:27;13.23;;;8.67;;
16101;SDS011;56411;52.964;10.540;2022-09-12T06:25:54;13.57;;;8.80;;
16101;SDS011;56411;52.964;10.540;2022-09-12T06:28:22;13.80;;;8.70;;
16101;SDS011;56411;52.964;10.540;2022-09-12T06:30:49;14.83;;;9.50;;
16101;SDS011;56411;52.964;10.540;2022-09-12T06:33:16;13.93;;;8.43;;
16101;SDS011;56411;52.964;10.540;2022-09-12T06:35:43;13.70;;;9.00;;
16101;SDS011;56411;52.964;10.540;2022-09-12T06:38:10;15.63;;;9.40;;
16101;SDS011;56411;52.964;10.540;2022-09-12T06:40:40;13.47;;;9.13;;
16101;SDS011;56411;52.964;10.540;2022-09-12T06:43:08;16.60;;;10.83;;
16101;SDS011;56411;52.964;10.540;2022-09-12T06:45:37;17.60;;;11.17;;
16101;SDS011;56411;52.964;10.540;2022-09-12T06:48:04;15.73;;;10.57;;
16101;SDS011;56411;52.964;10.540;2022-09-12T06:50:31;15.27;;;9.83;;
16101;SDS011;56411;52.964;10.540;2022-09-12T06:52:58;20.40;;;12.10;;
16101;SDS011;56411;52.964;10.540;2022-09-12T06:55:25;17.47;;;11.53;;
16101;SDS011;56411;52.964;10.540;2022-09-12T06:57:53;16.73;;;12.10;;
16101;SDS011;56411;52.964;10.540;2022-09-12T07:00:20;18.00;;;11.90;;
16101;SDS011;56411;52.964;10.540;2022-09-12T07:02:50;18.23;;;13.10;;
16101;SDS011;56411;52.964;10.540;2022-09-12T07:05:19;19.37;;;13.37;;
16101;SDS011;56411;52.964;10.540;2022-09-12T07:07:46;18.83;;;12.95;;
16101;SDS011;56411;52.964;10.540;2022-09-12T07:10:13;17.83;;;12.57;;
16101;SDS011;56411;52.964;10.540;2022-09-12T07:12:39;18.13;;;13.00;;
16101;SDS011;56411;52.964;10.540;2022-09-12T07:15:07;19.90;;;13.70;;
16101;SDS011;56411;52.964;10.540;2022-09-12T07:17:35;17.47;;;12.87;;
16101;SDS011;56411;52.964;10.540;2022-09-12T07:20:03;21.10;;;14.73;;
16101;SDS011;56411;52.964;10.540;2022-09-12T07:22:31;19.63;;;13.68;;
16101;SDS011;56411;52.964;10.540;2022-09-12T07:24:58;18.27;;;13.03;;
16101;SDS011;56411;52.964;10.540;2022-09-12T07:27:24;23.03;;;14.30;;
16101;SDS011;56411;52.964;10.540;2022-09-12T07:29:51;20.63;;;13.87;;
16101;SDS011;56411;52.964;10.540;2022-09-12T07:32:18;19.90;;;13.57;;
16101;SDS011;56411;52.964;10.540;2022-09-12T07:34:45;20.77;;;14.07;;
16101;SDS011;56411;52.964;10.540;2022-09-12T07:37:13;17.30;;;12.32;;
16101;SDS011;56411;52.964;10.540;2022-09-12T07:39:40;18.37;;;13.07;;
16101;SDS011;56411;52.964;10.540;2022-09-12T07:42:07;18.15;;;12.48;;
16101;SDS011;56411;52.964;10.540;2022-09-12T07:44:36;20.42;;;14.30;;
16101;SDS011;56411;52.964;10.540;2022-09-12T07:47:03;21.55;;;14.77;;
16101;SDS011;56411;52.964;10.540;2022-09-12T07:49:30;20.35;;;14.45;;
16101;SDS011;56411;52.964;10.540;2022-09-12T07:51:57;19.40;;;13.10;;
16101;SDS011;56411;52.964;10.540;2022-09-12T07:54:25;21.17;;;14.00;;
16101;SDS011;56411;52.964;10.540;2022-09-12T07:56:52;18.33;;;13.13;;
16101;SDS011;56411;52.964;10.540;2022-09-12T07:59:19;19.58;;;13.23;;
16101;SDS011;56411;52.964;10.540;2022-09-12T08:01:46;19.02;;;13.13;;
16101;SDS011;56411;52.964;10.540;2022-09-12T08:04:13;17.83;;;12.57;;
16101;SDS011;56411;52.964;10.540;2022-09-12T08:06:40;18.35;;;13.43;;
16101;SDS011;56411;52.964;10.540;2022-09-12T08:09:07;17.20;;;12.38;;
16101;SDS011;56411;52.964;10.540;2022-09-12T08:11:37;16.08;;;11.45;;
16101;SDS011;56411;52.964;10.540;2022-09-12T08:14:04;18.30;;;11.98;;
16101;SDS011;56411;52.964;10.540;2022-09-12T08:16:31;16.10;;;11.70;;
16101;SDS011;56411;52.964;10.540;2022-09-12T08:19:00;15.45;;;11.07;;
16101;SDS011;56411;52.964;10.540;2022-09-12T08:21:29;16.08;;;11.20;;
16101;SDS011;56411;52.964;10.540;2022-09-12T08:23:57;14.77;;;10.15;;
16101;SDS011;56411;52.964;10.540;2022-09-12T08:26:25;14.50;;;10.15;;
16101;SDS011;56411;52.964;10.540;2022-09-12T08:28:54;15.48;;;9.85;;
16101;SDS011;56411;52.964;10.540;2022-09-12T08:31:22;13.57;;;8.30;;
16101;SDS011;56411;52.964;10.540;2022-09-12T08:33:51;11.73;;;7.78;;
16101;SDS011;56411;52.964;10.540;2022-09-12T08:36:21;13.77;;;7.93;;
16101;SDS011;56411;52.964;10.540;2022-09-12T08:38:50;14.00;;;8.13;;
16101;SDS011;56411;52.964;10.540;2022-09-12T08:41:22;14.88;;;8.20;;
16101;SDS011;56411;52.964;10.540;2022-09-12T08:43:58;11.55;;;7.15;;
16101;SDS011;56411;52.964;10.540;2022-09-12T08:46:37;10.98;;;6.20;;
16101;SDS011;56411;52.964;10.540;2022-09-12T08:49:09;12.27;;;6.28;;
16101;SDS011;56411;52.964;10.540;2022-09-12T08:51:40;12.30;;;6.18;;
16101;SDS011;56411;52.964;10.540;2022-09-12T08:54:20;9.68;;;5.80;;
16101;SDS011;56411;52.964;10.540;2022-09-12T08:56:50;9.10;;;5.20;;
16101;SDS011;56411;52.964;10.540;2022-09-12T08:59:24;8.18;;;5.00;;
16101;SDS011;56411;52.964;10.540;2022-09-12T09:01:51;10.68;;;6.20;;
16101;SDS011;56411;52.964;10.540;2022-09-12T09:04:31;9.20;;;5.10;;
16101;SDS011;56411;52.964;10.540;2022-09-12T09:10:18;9.68;;;5.50;;
16101;SDS011;56411;52.964;10.540;2022-09-12T09:12:53;8.45;;;4.38;;
16101;SDS011;56411;52.964;10.540;2022-09-12T09:15:36;8.15;;;4.45;;
16101;SDS011;56411;52.964;10.540;2022-09-12T09:18:12;10.52;;;5.22;;
16101;SDS011;56411;52.964;10.540;2022-09-12T09:20:44;8.55;;;4.68;;
16101;SDS011;56411;52.964;10.540;2022-09-12T09:23:15;7.90;;;4.68;;
16101;SDS011;56411;52.964;10.540;2022-09-12T09:25:49;9.50;;;5.03;;
16101;SDS011;56411;52.964;10.540;2022-09-12T09:28:21;8.38;;;4.80;;
16101;SDS011;56411;52.964;10.540;2022-09-12T09:30:54;11.23;;;5.63;;
16101;SDS011;56411;52.964;10.540;2022-09-12T09:33:22;10.02;;;5.63;;
16101;SDS011;56411;52.964;10.540;2022-09-12T09:35:55;9.45;;;5.68;;
16101;SDS011;56411;52.964;10.540;2022-09-12T09:38:28;9.90;;;5.93;;
16101;SDS011;56411;52.964;10.540;2022-09-12T09:41:10;9.43;;;5.65;;
16101;SDS011;56411;52.964;10.540;2022-09-12T09:43:52;8.15;;;4.63;;
16101;SDS011;56411;52.964;10.540;2022-09-12T09:46:20;7.63;;;4.00;;
16101;SDS011;56411;52.964;10.540;2022-09-12T09:48:48;8.02;;;4.70;;
16101;SDS011;56411;52.964;10.540;2022-09-12T09:51:24;8.45;;;4.75;;
16101;SDS011;56411;52.964;10.540;2022-09-12T09:53:52;6.68;;;3.70;;
16101;SDS011;56411;52.964;10.540;2022-09-12T09:56:26;7.32;;;3.80;;
16101;SDS011;56411;52.964;10.540;2022-09-12T09:58:55;6.15;;;3.83;;
16101;SDS011;56411;52.964;10.540;2022-09-12T10:01:24;6.32;;;3.60;;
16101;SDS011;56411;52.964;10.540;2022-09-12T10:03:53;7.10;;;3.80;;
16101;SDS011;56411;52.964;10.540;2022-09-12T10:06:22;6.25;;;3.65;;
16101;SDS011;56411;52.964;10.540;2022-09-12T10:09:02;7.63;;;3.90;;
16101;SDS011;56411;52.964;10.540;2022-09-12T10:11:31;8.35;;;4.18;;
16101;SDS011;56411;52.964;10.540;2022-09-12T10:13:58;7.05;;;4.22;;
16101;SDS011;56411;52.964;10.540;2022-09-12T10:16:30;9.52;;;5.57;;
16101;SDS011;56411;52.964;10.540;2022-09-12T10:18:59;8.85;;;5.10;;
16101;SDS011;56411;52.964;10.540;2022-09-12T10:21:28;7.80;;;3.33;;
16101;SDS011;56411;52.964;10.540;2022-09-12T10:23:58;7.22;;;4.28;;
16101;SDS011;56411;52.964;10.540;2022-09-12T10:26:31;5.78;;;3.35;;
16101;SDS011;56411;52.964;10.540;2022-09-12T10:29:09;5.82;;;3.05;;
16101;SDS011;56411;52.964;10.540;2022-09-12T10:31:43;5.05;;;3.03;;
16101;SDS011;56411;52.964;10.540;2022-09-12T10:34:19;5.90;;;3.30;;
16101;SDS011;56411;52.964;10.540;2022-09-12T10:36:50;4.78;;;3.10;;
16101;SDS011;56411;52.964;10.540;2022-09-12T10:39:19;6.15;;;3.10;;
16101;SDS011;56411;52.964;10.540;2022-09-12T10:41:48;10.73;;;5.25;;
16101;SDS011;56411;52.964;10.540;2022-09-12T10:44:15;5.60;;;3.13;;
16101;SDS011;56411;52.964;10.540;2022-09-12T10:46:45;3.72;;;2.70;;
16101;SDS011;56411;52.964;10.540;2022-09-12T10:49:19;3.15;;;2.30;;
16101;SDS011;56411;52.964;10.540;2022-09-12T10:51:51;5.15;;;2.97;;
16101;SDS011;56411;52.964;10.540;2022-09-12T10:54:20;4.43;;;2.80;;
16101;SDS011;56411;52.964;10.540;2022-09-12T10:56:53;4.50;;;2.90;;
16101;SDS011;56411;52.964;10.540;2022-09-12T10:59:33;4.43;;;2.60;;
16101;SDS011;56411;52.964;10.540;2022-09-12T11:02:18;5.05;;;2.75;;
16101;SDS011;56411;52.964;10.540;2022-09-12T11:04:54;5.53;;;2.67;;
16101;SDS011;56411;52.964;10.540;2022-09-12T11:07:31;5.90;;;2.60;;
16101;SDS011;56411;52.964;10.540;2022-09-12T11:10:08;6.97;;;2.22;;
16101;SDS011;56411;52.964;10.540;2022-09-12T11:12:46;3.08;;;2.05;;
16101;SDS011;56411;52.964;10.540;2022-09-12T11:15:24;2.53;;;1.90;;
16101;SDS011;56411;52.964;10.540;2022-09-12T11:18:04;2.97;;;1.85;;
16101;SDS011;56411;52.964;10.540;2022-09-12T11:23:47;3.58;;;2.00;;
16101;SDS011;56411;52.964;10.540;2022-09-12T11:26:38;4.78;;;2.10;;
16101;SDS011;56411;52.964;10.540;2022-09-12T11:29:22;3.17;;;1.77;;
16101;SDS011;56411;52.964;10.540;2022-09-12T11:32:06;2.67;;;1.80;;
16101;SDS011;56411;52.964;10.540;2022-09-12T11:34:48;4.75;;;1.85;;
16101;SDS011;56411;52.964;10.540;2022-09-12T11:37:27;2.13;;;1.90;;
16101;SDS011;56411;52.964;10.540;2022-09-12T11:40:06;2.58;;;1.77;;
16101;SDS011;56411;52.964;10.540;2022-09-12T11:42:47;2.00;;;1.80;;
16101;SDS011;56411;52.964;10.540;2022-09-12T11:45:21;3.60;;;1.85;;
16101;SDS011;56411;52.964;10.540;2022-09-12T11:47:52;2.45;;;1.90;;
16101;SDS011;56411;52.964;10.540;2022-09-12T11:50:25;2.22;;;2.00;;
16101;SDS011;56411;52.964;10.540;2022-09-12T11:52:56;2.47;;;1.95;;
16101;SDS011;56411;52.964;10.540;2022-09-12T11:55:30;2.10;;;1.80;;
16101;SDS011;56411;52.964;10.540;2022-09-12T11:58:09;1.98;;;1.80;;
16101;SDS011;56411;52.964;10.540;2022-09-12T12:00:39;2.13;;;1.90;;
16101;SDS011;56411;52.964;10.540;2022-09-12T12:03:12;2.10;;;1.70;;
16101;SDS011;56411;52.964;10.540;2022-09-12T12:05:46;3.45;;;2.00;;
16101;SDS011;56411;52.964;10.540;2022-09-12T12:08:18;4.90;;;1.85;;
16101;SDS011;56411;52.964;10.540;2022-09-12T12:10:47;3.03;;;1.88;;
16101;SDS011;56411;52.964;10.540;2022-09-12T12:13:18;2.17;;;1.70;;
16101;SDS011;56411;52.964;10.540;2022-09-12T12:15:49;3.35;;;2.00;;
16101;SDS011;56411;52.964;10.540;2022-09-12T12:18:20;2.78;;;2.00;;
16101;SDS011;56411;52.964;10.540;2022-09-12T12:20:50;2.08;;;1.90;;
16101;SDS011;56411;52.964;10.540;2022-09-12T12:23:21;2.00;;;1.70;;
16101;SDS011;56411;52.964;10.540;2022-09-12T12:25:50;2.42;;;1.80;;
16101;SDS011;56411;52.964;10.540;2022-09-12T12:31:23;1.95;;;1.73;;
16101;SDS011;56411;52.964;10.540;2022-09-12T12:33:51;2.15;;;1.85;;
16101;SDS011;56411;52.964;10.540;2022-09-12T12:36:29;2.88;;;1.75;;
16101;SDS011;56411;52.964;10.540;2022-09-12T12:48:27;2.20;;;2.00;;
16101;SDS011;56411;52.964;10.540;2022-09-12T12:53:56;2.05;;;1.85;;
16101;SDS011;56411;52.964;10.540;2022-09-12T12:56:25;4.30;;;2.20;;
16101;SDS011;56411;52.964;10.540;2022-09-12T12:58:57;2.30;;;2.00;;
16101;SDS011;56411;52.964;10.540;2022-09-12T13:01:26;2.75;;;2.10;;
16101;SDS011;56411;52.964;10.540;2022-09-12T13:03:54;3.60;;;2.13;;
16101;SDS011;56411;52.964;10.540;2022-09-12T13:06:28;2.20;;;1.92;;
16101;SDS011;56411;52.964;10.540;2022-09-12T13:09:02;3.67;;;2.05;;
16101;SDS011;56411;52.964;10.540;2022-09-12T13:11:32;3.05;;;2.00;;
16101;SDS011;56411;52.964;10.540;2022-09-12T13:14:01;3.28;;;2.10;;
16101;SDS011;56411;52.964;10.540;2022-09-12T13:16:31;3.03;;;2.33;;
16101;SDS011;56411;52.964;10.540;2022-09-12T13:19:03;4.50;;;2.10;;
16101;SDS011;56411;52.964;10.540;2022-09-12T13:21:33;2.70;;;2.03;;
16101;SDS011;56411;52.964;10.540;2022-09-12T13:24:03;3.35;;;2.20;;
16101;SDS011;56411;52.964;10.540;2022-09-12T13:26:39;3.95;;;2.20;;
16101;SDS011;56411;52.964;10.540;2022-09-12T13:29:08;2.55;;;2.20;;
16101;SDS011;56411;52.964;10.540;2022-09-12T13:31:36;2.40;;;2.20;;
16101;SDS011;56411;52.964;10.540;2022-09-12T13:34:04;4.03;;;2.45;;
16101;SDS011;56411;52.964;10.540;2022-09-12T13:36:54;5.75;;;3.33;;
16101;SDS011;56411;52.964;10.540;2022-09-12T13:39:36;5.93;;;2.55;;
16101;SDS011;56411;52.964;10.540;2022-09-12T13:42:23;4.03;;;2.47;;
16101;SDS011;56411;52.964;10.540;2022-09-12T13:45:04;4.70;;;2.65;;
16101;SDS011;56411;52.964;10.540;2022-09-12T13:47:37;3.67;;;2.50;;
16101;SDS011;56411;52.964;10.540;2022-09-12T13:50:07;5.35;;;2.70;;
16101;SDS011;56411;52.964;10.540;2022-09-12T13:52:41;4.97;;;2.83;;
16101;SDS011;56411;52.964;10.540;2022-09-12T13:55:21;5.65;;;2.95;;
16101;SDS011;56411;52.964;10.540;2022-09-12T13:57:55;5.60;;;3.20;;
16101;SDS011;56411;52.964;10.540;2022-09-12T14:00:24;5.38;;;3.10;;
16101;SDS011;56411;52.964;10.540;2022-09-12T14:02:52;5.18;;;2.90;;
16101;SDS011;56411;52.964;10.540;2022-09-12T14:05:40;6.15;;;3.15;;
16101;SDS011;56411;52.964;10.540;2022-09-12T14:08:08;5.97;;;3.13;;
16101;SDS011;56411;52.964;10.540;2022-09-12T14:10:41;4.72;;;2.83;;
16101;SDS011;56411;52.964;10.540;2022-09-12T14:13:10;4.72;;;2.90;;
16101;SDS011;56411;52.964;10.540;2022-09-12T14:15:38;5.43;;;3.03;;
16101;SDS011;56411;52.964;10.540;2022-09-12T14:18:18;3.97;;;2.80;;
16101;SDS011;56411;52.964;10.540;2022-09-12T14:20:47;5.53;;;3.00;;
16101;SDS011;56411;52.964;10.540;2022-09-12T14:23:17;5.30;;;3.25;;
16101;SDS011;56411;52.964;10.540;2022-09-12T14:25:50;5.10;;;3.10;;
16101;SDS011;56411;52.964;10.540;2022-09-12T14:28:17;6.50;;;3.30;;
16101;SDS011;56411;52.964;10.540;2022-09-12T14:30:56;6.18;;;3.28;;
16101;SDS011;56411;52.964;10.540;2022-09-12T14:33:23;4.82;;;2.90;;
16101;SDS011;56411;52.964;10.540;2022-09-12T14:35:51;6.68;;;3.13;;
16101;SDS011;56411;52.964;10.540;2022-09-12T14:38:33;5.78;;;3.22;;
16101;SDS011;56411;52.964;10.540;2022-09-12T14:41:04;8.00;;;3.10;;
16101;SDS011;56411;52.964;10.540;2022-09-12T14:43:35;6.43;;;2.90;;
16101;SDS011;56411;52.964;10.540;2022-09-12T14:46:04;5.20;;;3.00;;
16101;SDS011;56411;52.964;10.540;2022-09-12T14:48:34;4.32;;;2.97;;
16101;SDS011;56411;52.964;10.540;2022-09-12T14:51:02;4.88;;;2.90;;
16101;SDS011;56411;52.964;10.540;2022-09-12T14:53:32;4.63;;;2.65;;
16101;SDS011;56411;52.964;10.540;2022-09-12T14:56:08;4.80;;;2.85;;
16101;SDS011;56411;52.964;10.540;2022-09-12T14:58:37;5.10;;;2.60;;
16101;SDS011;56411;52.964;10.540;2022-09-12T15:03:50;4.57;;;2.70;;
16101;SDS011;56411;52.964;10.540;2022-09-12T15:06:20;5.05;;;2.70;;
16101;SDS011;56411;52.964;10.540;2022-09-12T15:08:50;4.30;;;2.58;;
16101;SDS011;56411;52.964;10.540;2022-09-12T15:11:20;3.20;;;2.58;;
16101;SDS011;56411;52.964;10.540;2022-09-12T15:13:47;5.05;;;2.70;;
16101;SDS011;56411;52.964;10.540;2022-09-12T15:16:14;3.95;;;2.47;;
16101;SDS011;56411;52.964;10.540;2022-09-12T15:18:41;6.00;;;2.70;;
16101;SDS011;56411;52.964;10.540;2022-09-12T15:21:10;4.88;;;2.58;;
16101;SDS011;56411;52.964;10.540;2022-09-12T15:23:39;4.45;;;2.70;;